Time;durP1;ratioP1;P1;durP2;ratioP2;P2;SDS_P1;SDS_P2;PMS_P1;PMS_P2;Temp;Humidity;BMP_temperature;BMP_pressure;BME280_temperature;BME280_humidity;BME280_pressure;Samples;Min_cycle;Max_cycle;Signal;HPM_P1;HPM_P2
2023/08/19 00:01:04;;;;;;;0.20;0.20;;;;;;;20.50;86.41;100606.97;5032611;28;20138;-70
2023/08/19 00:03:30;;;;;;;0.20;0.20;;;;;;;20.44;86.40;100611.84;5023641;28;20836;-70
2023/08/19 00:05:59;;;;;;;0.20;0.20;;;;;;;20.36;86.62;100601.53;5029237;28;20047;-70
2023/08/19 00:08:25;;;;;;;0.20;0.20;;;;;;;20.39;86.87;100612.00;5029915;28;20462;-68
2023/08/19 00:10:52;;;;;;;0.20;0.20;;;;;;;20.35;87.07;100614.59;5042452;28;20053;-70
2023/08/19 00:13:18;;;;;;;0.20;0.20;;;;;;;20.32;87.23;100608.88;5025148;28;20074;-70
2023/08/19 00:15:44;;;;;;;0.20;0.20;;;;;;;20.32;87.31;100617.22;5023511;28;20049;-72
2023/08/19 00:18:12;;;;;;;0.20;0.20;;;;;;;20.28;87.16;100611.47;5029705;28;20050;-71
2023/08/19 00:20:39;;;;;;;0.20;0.20;;;;;;;20.23;87.20;100608.84;5023026;28;20053;-72
2023/08/19 00:23:05;;;;;;;0.20;0.20;;;;;;;20.19;87.71;100613.38;5022181;28;20052;-71
2023/08/19 00:25:33;;;;;;;0.20;0.20;;;;;;;20.15;88.04;100607.69;5024786;28;20148;-72
2023/08/19 00:27:59;;;;;;;0.20;0.20;;;;;;;20.11;88.08;100609.44;5037476;28;20140;-71
2023/08/19 00:30:26;;;;;;;0.20;0.20;;;;;;;20.12;88.26;100599.97;5026391;28;20075;-72
2023/08/19 00:32:52;;;;;;;0.20;0.20;;;;;;;20.08;88.59;100604.53;5026244;28;20061;-73
2023/08/19 00:35:20;;;;;;;0.20;0.20;;;;;;;20.06;88.91;100606.81;5032526;28;20041;-72
2023/08/19 00:37:46;;;;;;;0.20;0.20;;;;;;;20.05;89.00;100603.22;5034661;28;20063;-72
2023/08/19 00:40:14;;;;;;;0.20;0.20;;;;;;;20.04;89.10;100601.56;5020711;28;20041;-72
2023/08/19 00:42:42;;;;;;;0.20;0.20;;;;;;;20.05;89.69;100594.88;5029779;28;20062;-71
2023/08/19 00:45:09;;;;;;;0.20;0.20;;;;;;;20.02;89.65;100589.16;5031362;28;20060;-71
2023/08/19 00:47:35;;;;;;;;;;;;;;;20.02;89.66;100587.19;5036285;28;20052;-71
2023/08/19 00:50:03;;;;;;;0.20;0.20;;;;;;;20.03;89.27;100583.28;5030396;28;19929;-71
2023/08/19 00:52:33;;;;;;;0.25;0.25;;;;;;;19.99;89.43;100579.53;5028611;28;20064;-71
2023/08/19 00:55:00;;;;;;;0.20;0.20;;;;;;;20.00;89.42;100572.81;5033605;28;20055;-71
2023/08/19 00:57:27;;;;;;;0.20;0.20;;;;;;;19.96;89.72;100572.66;5022008;28;20057;-71
2023/08/19 00:59:53;;;;;;;0.20;0.20;;;;;;;19.94;89.71;100576.91;5030012;28;20045;-72
2023/08/19 01:02:19;;;;;;;0.27;0.27;;;;;;;19.89;89.60;100580.59;5015476;28;20049;-72
2023/08/19 01:04:46;;;;;;;0.20;0.20;;;;;;;19.89;89.67;100582.53;5034381;28;20326;-73
2023/08/19 01:07:23;;;;;;;0.20;0.20;;;;;;;19.90;89.95;100585.00;5025458;28;20296;-72
2023/08/19 01:09:58;;;;;;;0.22;0.22;;;;;;;19.89;90.28;100591.69;5038571;28;20049;-72
2023/08/19 01:12:38;;;;;;;0.20;0.20;;;;;;;19.87;89.77;100580.09;5012277;28;20490;-72
2023/08/19 01:15:10;;;;;;;0.20;0.20;;;;;;;19.88;89.90;100578.97;5029268;28;20569;-72
2023/08/19 01:17:38;;;;;;;0.20;0.20;;;;;;;19.85;90.27;100579.59;5005068;28;20045;-70
2023/08/19 01:20:05;;;;;;;0.20;0.20;;;;;;;19.84;90.56;100578.78;5018869;28;20053;-71
2023/08/19 01:22:40;;;;;;;0.20;0.20;;;;;;;19.84;91.06;100578.78;5043490;28;20057;-71
2023/08/19 01:25:10;;;;;;;0.28;0.28;;;;;;;19.83;90.53;100582.69;5024590;28;20037;-72
2023/08/19 01:27:36;;;;;;;0.20;0.20;;;;;;;19.86;90.32;100583.19;5026828;28;20050;-71
2023/08/19 01:30:02;;;;;;;0.20;0.20;;;;;;;19.91;90.01;100589.41;5020873;28;20053;-71
2023/08/19 01:32:32;;;;;;;0.22;0.22;;;;;;;19.88;89.41;100561.47;5036254;28;20147;-72
2023/08/19 01:34:58;;;;;;;0.20;0.20;;;;;;;20.10;88.41;100580.88;5033900;28;20094;-70
2023/08/19 01:37:33;;;;;;;0.20;0.20;;;;;;;20.17;88.23;100579.59;5031039;28;20054;-72
2023/08/19 01:40:01;;;;;;;0.20;0.20;;;;;;;20.19;87.99;100577.31;5029374;28;20471;-72
2023/08/19 01:42:32;;;;;;;0.20;0.20;;;;;;;20.18;88.13;100584.81;5029352;28;20065;-72
2023/08/19 01:45:00;;;;;;;0.20;0.20;;;;;;;20.18;87.55;100589.53;5012495;28;20045;-72
2023/08/19 01:47:26;;;;;;;0.20;0.20;;;;;;;20.20;87.72;100585.31;5027947;28;20091;-72
2023/08/19 01:49:53;;;;;;;0.20;0.20;;;;;;;20.24;87.87;100585.50;5020228;28;20057;-71
2023/08/19 01:52:20;;;;;;;0.20;0.20;;;;;;;20.30;87.82;100594.50;5016745;28;20044;-71
2023/08/19 01:54:48;;;;;;;0.20;0.20;;;;;;;20.36;87.40;100599.56;5030679;28;20132;-70
2023/08/19 01:57:14;;;;;;;0.20;0.20;;;;;;;20.39;87.22;100595.34;5030580;28;20102;-71
2023/08/19 01:59:41;;;;;;;0.20;0.20;;;;;;;20.42;86.72;100593.88;5027194;28;20067;-71
2023/08/19 02:02:08;;;;;;;0.20;0.20;;;;;;;20.44;86.81;100586.03;5044234;28;20112;-72
2023/08/19 02:04:34;;;;;;;0.20;0.20;;;;;;;20.46;86.85;100594.88;5022346;28;20050;-72
2023/08/19 02:07:00;;;;;;;0.20;0.20;;;;;;;20.46;86.79;100584.59;5025150;28;20072;-72
2023/08/19 02:09:28;;;;;;;0.20;0.20;;;;;;;20.45;86.94;100591.28;5036087;28;20115;-72
2023/08/19 02:11:55;;;;;;;0.20;0.20;;;;;;;20.39;86.30;100590.63;5044611;28;20520;-72
2023/08/19 02:14:21;;;;;;;0.20;0.20;;;;;;;20.33;86.89;100582.75;5037855;28;20049;-70
2023/08/19 02:16:49;;;;;;;0.20;0.20;;;;;;;20.22;87.63;100591.38;5044230;28;20041;-71
2023/08/19 02:19:15;;;;;;;0.20;0.20;;;;;;;20.12;87.59;100591.66;5043559;28;20079;-70
2023/08/19 02:21:41;;;;;;;0.20;0.20;;;;;;;20.03;88.36;100596.34;5020663;28;20053;-73
2023/08/19 02:24:08;;;;;;;0.30;0.30;;;;;;;19.95;89.02;100597.97;5038596;28;20041;-71
2023/08/19 02:26:34;;;;;;;0.20;0.20;;;;;;;19.93;89.33;100603.00;5026528;28;20076;-73
2023/08/19 02:29:00;;;;;;;0.20;0.20;;;;;;;19.92;89.57;100596.63;5017614;28;20045;-72
2023/08/19 02:31:27;;;;;;;0.20;0.20;;;;;;;19.90;89.50;100592.50;5036368;28;20122;-70
2023/08/19 02:33:54;;;;;;;0.20;0.20;;;;;;;19.88;89.59;100603.94;5025784;28;20049;-71
2023/08/19 02:36:20;;;;;;;0.20;0.20;;;;;;;19.87;89.69;100599.53;5027596;28;20056;-70
2023/08/19 02:38:46;;;;;;;0.22;0.22;;;;;;;19.78;89.49;100585.59;5026817;28;20413;-72
2023/08/19 02:41:12;;;;;;;0.20;0.20;;;;;;;19.84;89.58;100609.28;5036563;28;20064;-72
2023/08/19 02:43:39;;;;;;;0.28;0.28;;;;;;;19.84;89.44;100602.94;5041582;28;20058;-72
2023/08/19 02:46:05;;;;;;;0.30;0.30;;;;;;;19.82;89.27;100603.25;5035874;28;20569;-72
2023/08/19 02:48:31;;;;;;;0.20;0.20;;;;;;;19.85;88.94;100607.34;5045975;28;20111;-70
2023/08/19 02:50:59;;;;;;;0.20;0.20;;;;;;;19.87;88.84;100609.78;5035015;28;20390;-70
2023/08/19 02:53:28;;;;;;;0.20;0.20;;;;;;;19.87;88.85;100607.00;5025415;28;20300;-71
2023/08/19 02:55:54;;;;;;;0.20;0.20;;;;;;;19.81;88.98;100606.31;5035492;28;20045;-71
2023/08/19 02:58:21;;;;;;;0.20;0.20;;;;;;;19.85;89.25;100610.13;5034303;28;20136;-72
2023/08/19 03:00:48;;;;;;;0.30;0.30;;;;;;;19.87;89.35;100609.78;5007820;28;20048;-69
2023/08/19 03:03:15;;;;;;;0.20;0.20;;;;;;;19.90;89.26;100620.25;5014644;28;20068;-69
2023/08/19 03:05:42;;;;;;;0.20;0.20;;;;;;;19.92;89.17;100613.28;5022110;28;20119;-70
2023/08/19 03:08:10;;;;;;;0.20;0.20;;;;;;;19.93;89.07;100608.56;5033130;28;20044;-70
2023/08/19 03:10:38;;;;;;;0.20;0.20;;;;;;;19.97;88.57;100618.69;5018371;28;20074;-70
2023/08/19 03:13:04;;;;;;;;;;;;;;;20.02;88.76;100614.16;5041685;28;20041;-69
2023/08/19 03:15:30;;;;;;;0.20;0.20;;;;;;;20.03;88.18;100613.00;5029751;28;20019;-71
2023/08/19 03:17:56;;;;;;;0.20;0.20;;;;;;;20.05;87.73;100610.72;5016987;28;20395;-71
2023/08/19 03:20:22;;;;;;;0.20;0.20;;;;;;;20.06;87.79;100617.91;5024886;28;20255;-71
2023/08/19 03:22:48;;;;;;;0.20;0.20;;;;;;;20.11;87.41;100621.38;5033583;28;20528;-71
2023/08/19 03:25:17;;;;;;;0.20;0.20;;;;;;;20.15;87.58;100617.94;5007749;28;20053;-70
2023/08/19 03:27:43;;;;;;;0.20;0.20;;;;;;;20.14;87.27;100619.94;5023597;28;20074;-71
2023/08/19 03:30:10;;;;;;;0.20;0.20;;;;;;;20.13;87.64;100618.25;5023460;28;20055;-72
2023/08/19 03:32:37;;;;;;;0.20;0.20;;;;;;;20.13;87.28;100612.72;5024043;28;20295;-71
2023/08/19 03:35:05;;;;;;;0.30;0.30;;;;;;;20.17;87.47;100621.22;5020158;28;20044;-70
2023/08/19 03:37:31;;;;;;;0.20;0.20;;;;;;;20.21;86.92;100625.00;5029906;28;20048;-70
2023/08/19 03:39:57;;;;;;;0.20;0.20;;;;;;;20.18;87.09;100620.91;5027655;28;20045;-70
2023/08/19 03:42:25;;;;;;;0.30;0.30;;;;;;;20.22;86.73;100632.22;5027796;28;20520;-70
2023/08/19 03:44:53;;;;;;;0.20;0.20;;;;;;;20.24;86.34;100633.50;5015271;28;20044;-70
2023/08/19 03:47:19;;;;;;;0.20;0.20;;;;;;;20.37;86.09;100628.16;5031347;28;20148;-71
2023/08/19 03:49:46;;;;;;;0.30;0.30;;;;;;;20.49;85.31;100636.72;5030371;28;20052;-70
2023/08/19 03:52:12;;;;;;;0.30;0.30;;;;;;;20.60;84.68;100636.38;5009869;28;20766;-70
2023/08/19 03:54:39;;;;;;;0.30;0.30;;;;;;;20.65;84.00;100628.72;5034120;28;20520;-69
2023/08/19 03:57:05;;;;;;;0.20;0.20;;;;;;;20.68;83.39;100628.09;5031015;28;20539;-70
2023/08/19 03:59:34;;;;;;;;;;;;;;;20.77;83.60;100628.13;5033482;28;20513;-70
2023/08/19 04:02:00;;;;;;;0.30;0.30;;;;;;;20.87;82.71;100626.19;5021952;28;19932;-70
2023/08/19 04:04:27;;;;;;;0.20;0.20;;;;;;;20.92;82.13;100623.28;5022991;28;20099;-70
2023/08/19 04:06:53;;;;;;;0.30;0.30;;;;;;;20.89;81.91;100619.16;5042930;28;20049;-70
2023/08/19 04:09:20;;;;;;;0.30;0.30;;;;;;;20.90;81.97;100623.59;5042432;28;20057;-72
2023/08/19 04:11:50;;;;;;;0.30;0.30;;;;;;;20.90;82.30;100618.03;5041660;28;20405;-70
2023/08/19 04:14:17;;;;;;;0.30;0.30;;;;;;;20.92;82.45;100615.75;5028740;28;20303;-69
2023/08/19 04:16:45;;;;;;;0.30;0.30;;;;;;;20.95;82.39;100620.63;5027584;28;20578;-71
2023/08/19 04:19:11;;;;;;;0.35;0.30;;;;;;;20.99;82.81;100614.41;5023230;28;20136;-69
2023/08/19 04:21:38;;;;;;;0.30;0.30;;;;;;;21.06;82.24;100625.88;5020384;28;20049;-71
2023/08/19 04:24:05;;;;;;;0.30;0.30;;;;;;;21.10;81.74;100624.91;5031639;28;20041;-71
2023/08/19 04:26:31;;;;;;;0.30;0.30;;;;;;;21.16;81.21;100628.34;5028942;28;20436;-70
2023/08/19 04:28:58;;;;;;;0.30;0.30;;;;;;;21.22;81.15;100624.25;5005906;28;20478;-70
2023/08/19 04:31:26;;;;;;;0.30;0.30;;;;;;;21.34;80.67;100622.78;5020381;28;20304;-71
2023/08/19 04:33:59;;;;;;;0.30;0.30;;;;;;;21.42;80.33;100626.72;5026836;28;20046;-70
2023/08/19 04:36:26;;;;;;;0.30;0.30;;;;;;;21.48;80.26;100625.38;5041835;28;20048;-70
2023/08/19 04:38:53;;;;;;;0.30;0.30;;;;;;;21.52;79.79;100627.19;5015659;28;20089;-70
2023/08/19 04:41:19;;;;;;;0.25;0.25;;;;;;;21.56;79.54;100627.34;5021719;28;20148;-70
2023/08/19 04:43:47;;;;;;;0.23;0.23;;;;;;;21.66;79.24;100627.00;5034333;28;20115;-71
2023/08/19 04:46:15;;;;;;;0.30;0.30;;;;;;;21.72;78.90;100632.41;5020235;28;20060;-71
2023/08/19 04:48:41;;;;;;;0.30;0.30;;;;;;;21.78;78.79;100629.13;5025706;28;20509;-70
2023/08/19 04:51:09;;;;;;;0.30;0.30;;;;;;;21.85;78.74;100625.03;5011094;28;20106;-71
2023/08/19 04:53:35;;;;;;;0.30;0.30;;;;;;;21.86;78.49;100621.09;5023606;28;20308;-70
2023/08/19 04:56:02;;;;;;;0.30;0.30;;;;;;;21.88;78.39;100627.13;5015209;28;20491;-69
2023/08/19 04:58:29;;;;;;;0.30;0.30;;;;;;;21.93;78.21;100625.00;5022690;28;20075;-71
2023/08/19 05:00:55;;;;;;;0.30;0.30;;;;;;;22.01;77.72;100626.09;5022866;28;20476;-70
2023/08/19 05:03:23;;;;;;;0.38;0.38;;;;;;;22.03;77.35;100614.66;5023145;28;20050;-71
2023/08/19 05:05:50;;;;;;;0.30;0.30;;;;;;;22.10;77.25;100623.28;5029234;28;20061;-71
2023/08/19 05:08:21;;;;;;;0.30;0.30;;;;;;;22.20;76.70;100620.16;5025757;28;20041;-70
2023/08/19 05:10:47;;;;;;;0.30;0.30;;;;;;;22.22;76.59;100628.16;5019085;28;20689;-70
2023/08/19 05:13:14;;;;;;;0.30;0.30;;;;;;;22.23;76.42;100625.03;5023278;28;20131;-70
2023/08/19 05:15:42;;;;;;;0.30;0.30;;;;;;;22.29;76.41;100624.84;5017068;28;20041;-71
2023/08/19 05:18:08;;;;;;;0.30;0.30;;;;;;;22.39;75.81;100619.72;5023350;28;20392;-71
2023/08/19 05:20:34;;;;;;;0.30;0.30;;;;;;;22.53;75.19;100615.91;5033310;28;20060;-71
2023/08/19 05:23:01;;;;;;;0.30;0.30;;;;;;;22.66;74.38;100614.84;5042174;28;20049;-71
2023/08/19 05:25:29;;;;;;;0.30;0.30;;;;;;;22.86;73.45;100612.41;5037881;28;20053;-71
2023/08/19 05:27:56;;;;;;;0.30;0.30;;;;;;;23.01;72.56;100611.00;5034056;28;20062;-71
2023/08/19 05:30:22;;;;;;;;;;;;;;;23.03;72.49;100617.06;5041306;28;20060;-71
2023/08/19 05:32:48;;;;;;;0.30;0.30;;;;;;;22.95;72.40;100615.16;5023172;28;19925;-71
2023/08/19 05:35:15;;;;;;;0.30;0.30;;;;;;;22.83;72.85;100617.88;5019911;28;20569;-69
2023/08/19 05:37:42;;;;;;;0.30;0.30;;;;;;;22.78;73.03;100610.50;5034169;28;20419;-70
2023/08/19 05:40:08;;;;;;;0.30;0.30;;;;;;;22.93;72.70;100617.44;5034720;28;20069;-70
2023/08/19 05:42:36;;;;;;;0.30;0.30;;;;;;;23.16;72.13;100623.50;5030912;28;20057;-71
2023/08/19 05:45:03;;;;;;;0.30;0.30;;;;;;;23.36;71.02;100619.09;5026770;28;20054;-71
2023/08/19 05:47:32;;;;;;;0.30;0.30;;;;;;;23.55;69.88;100620.56;5025287;28;20068;-69
2023/08/19 05:49:58;;;;;;;0.30;0.30;;;;;;;23.64;69.46;100609.31;5025593;28;20049;-71
2023/08/19 05:52:25;;;;;;;0.30;0.30;;;;;;;23.56;69.48;100619.41;5028003;28;20045;-70
2023/08/19 05:54:51;;;;;;;0.40;0.40;;;;;;;23.57;69.32;100609.06;5025211;28;20535;-71
2023/08/19 05:57:19;;;;;;;0.30;0.30;;;;;;;23.59;69.42;100598.38;5033177;28;20092;-71
2023/08/19 05:59:47;;;;;;;0.35;0.35;;;;;;;23.60;68.93;100600.00;5019155;28;20055;-70
2023/08/19 06:02:13;;;;;;;0.38;0.30;;;;;;;23.56;68.99;100607.44;5018751;28;20548;-73
2023/08/19 06:04:39;;;;;;;0.30;0.30;;;;;;;23.55;68.87;100603.00;5032146;28;20060;-71
2023/08/19 06:07:05;;;;;;;0.30;0.30;;;;;;;23.72;68.96;100602.81;5038517;28;20055;-70
2023/08/19 06:09:32;;;;;;;0.35;0.35;;;;;;;23.93;68.46;100608.34;5037565;28;20107;-70
2023/08/19 06:11:58;;;;;;;0.40;0.40;;;;;;;24.12;68.18;100601.41;5026664;28;20143;-74
2023/08/19 06:14:24;;;;;;;0.40;0.40;;;;;;;24.31;67.37;100602.81;5026205;28;20076;-71
2023/08/19 06:16:52;;;;;;;0.30;0.30;;;;;;;24.46;66.17;100604.88;5017799;28;20314;-72
2023/08/19 06:19:18;;;;;;;0.30;0.30;;;;;;;24.48;65.36;100599.75;5042507;28;20520;-71
2023/08/19 06:21:44;;;;;;;0.38;0.38;;;;;;;24.58;65.16;100608.84;5027298;28;20053;-71
2023/08/19 06:24:11;;;;;;;0.40;0.40;;;;;;;24.67;64.85;100611.50;5033361;28;20484;-71
2023/08/19 06:26:37;;;;;;;0.40;0.40;;;;;;;24.75;64.96;100605.78;5031570;28;20048;-71
2023/08/19 06:29:04;;;;;;;0.40;0.40;;;;;;;24.99;65.06;100611.72;5036718;28;20312;-70
2023/08/19 06:31:31;;;;;;;0.40;0.40;;;;;;;25.18;63.23;100617.47;5036162;28;20143;-70
2023/08/19 06:34:00;;;;;;;0.40;0.40;;;;;;;25.36;63.46;100614.38;5021373;28;20063;-70
2023/08/19 06:36:28;;;;;;;0.40;0.40;;;;;;;25.53;62.54;100616.06;5033914;28;20557;-70
2023/08/19 06:39:03;;;;;;;0.40;0.40;;;;;;;25.70;61.63;100622.53;5023889;28;20700;-72
2023/08/19 06:41:32;;;;;;;0.30;0.30;;;;;;;25.93;61.24;100628.34;5040049;28;20061;-72
2023/08/19 06:44:01;;;;;;;0.30;0.30;;;;;;;25.96;60.61;100626.81;5044415;28;20500;-70
2023/08/19 06:46:29;;;;;;;0.40;0.40;;;;;;;26.00;60.54;100624.91;5009086;28;20600;-72
2023/08/19 06:48:57;;;;;;;0.40;0.40;;;;;;;26.11;59.81;100628.81;5027378;28;20134;-72
2023/08/19 06:51:27;;;;;;;0.30;0.30;;;;;;;26.15;60.27;100626.91;5028367;28;20136;-70
2023/08/19 06:53:54;;;;;;;0.30;0.30;;;;;;;26.18;60.65;100633.81;5041151;28;20420;-70
2023/08/19 06:56:24;;;;;;;0.40;0.40;;;;;;;26.19;60.58;100625.03;5041655;28;20041;-70
2023/08/19 06:58:53;;;;;;;0.40;0.40;;;;;;;26.22;59.67;100631.91;5041308;28;20592;-71
2023/08/19 07:01:23;;;;;;;0.30;0.30;;;;;;;25.93;60.69;100622.72;5037996;28;20420;-70
2023/08/19 07:03:51;;;;;;;0.40;0.40;;;;;;;25.69;61.28;100635.72;5009798;28;20045;-70
2023/08/19 07:06:20;;;;;;;0.38;0.38;;;;;;;25.61;61.42;100623.50;5043279;28;20059;-70
2023/08/19 07:08:50;;;;;;;0.40;0.40;;;;;;;25.60;61.27;100627.50;5020862;28;20539;-70
2023/08/19 07:11:17;;;;;;;0.40;0.40;;;;;;;25.83;61.08;100635.28;5025852;28;20073;-71
2023/08/19 07:13:44;;;;;;;0.40;0.40;;;;;;;25.99;60.97;100631.69;5035654;28;20171;-72
2023/08/19 07:16:12;;;;;;;0.40;0.40;;;;;;;25.93;60.93;100631.13;5032936;28;20512;-72
2023/08/19 07:18:40;;;;;;;0.40;0.40;;;;;;;25.97;61.10;100632.03;5053457;28;20065;-72
2023/08/19 07:21:09;;;;;;;0.40;0.40;;;;;;;25.88;61.44;100635.00;5028754;28;20064;-72
2023/08/19 07:23:39;;;;;;;0.50;0.50;;;;;;;26.09;60.89;100633.97;5009576;28;20394;-72
2023/08/19 07:26:09;;;;;;;0.40;0.40;;;;;;;26.12;60.32;100638.00;5012939;28;20045;-72
2023/08/19 07:28:35;;;;;;;0.40;0.40;;;;;;;26.03;60.28;100638.19;5023279;28;20049;-72
2023/08/19 07:31:03;;;;;;;0.40;0.40;;;;;;;25.93;60.57;100635.94;5023324;28;20944;-72
2023/08/19 07:33:30;;;;;;;0.50;0.50;;;;;;;25.96;60.92;100630.41;5050783;28;20049;-72
2023/08/19 07:35:56;;;;;;;0.40;0.40;;;;;;;26.49;59.26;100629.34;5027816;28;20048;-72
2023/08/19 07:38:22;;;;;;;0.40;0.40;;;;;;;26.41;59.12;100630.34;5014929;28;20049;-71
2023/08/19 07:40:49;;;;;;;0.60;0.60;;;;;;;26.42;58.91;100627.19;5032197;28;20041;-70
2023/08/19 07:43:17;;;;;;;0.40;0.40;;;;;;;27.08;57.46;100629.47;5032569;28;20049;-70
2023/08/19 07:45:43;;;;;;;0.40;0.40;;;;;;;27.68;55.44;100625.47;5031722;28;20044;-71
2023/08/19 07:48:10;;;;;;;0.50;0.50;;;;;;;27.88;55.06;100626.25;5032360;28;20513;-70
2023/08/19 07:50:36;;;;;;;0.50;0.50;;;;;;;27.82;54.50;100627.75;5032363;28;20079;-71
2023/08/19 07:53:03;;;;;;;0.40;0.40;;;;;;;27.77;54.58;100630.84;5057216;28;20056;-71
2023/08/19 07:55:29;;;;;;;0.40;0.40;;;;;;;27.76;54.20;100631.25;5030744;28;20068;-71
2023/08/19 07:57:58;;;;;;;0.40;0.40;;;;;;;27.30;55.43;100622.31;5032425;28;20537;-71
2023/08/19 08:00:26;;;;;;;0.40;0.40;;;;;;;26.71;56.87;100636.28;5031736;28;20057;-71
2023/08/19 08:02:52;;;;;;;0.40;0.40;;;;;;;26.37;58.15;100635.06;5029218;28;20075;-71
2023/08/19 08:05:18;;;;;;;0.40;0.40;;;;;;;26.25;58.58;100631.16;5056583;28;20130;-71
2023/08/19 08:07:45;;;;;;;0.40;0.40;;;;;;;26.15;58.66;100629.69;5022143;28;20210;-71
2023/08/19 08:10:11;;;;;;;0.40;0.40;;;;;;;26.12;58.33;100630.44;5031549;28;20484;-70
2023/08/19 08:12:37;;;;;;;0.30;0.30;;;;;;;26.12;59.13;100621.19;5024069;28;20654;-70
2023/08/19 08:15:04;;;;;;;0.30;0.30;;;;;;;26.18;58.46;100620.59;5030497;28;20071;-69
2023/08/19 08:17:31;;;;;;;;;;;;;;;26.45;58.36;100611.63;5027307;28;20134;-70
2023/08/19 08:19:58;;;;;;;0.50;0.50;;;;;;;27.60;54.96;100610.50;5031460;28;19931;-70
2023/08/19 08:22:25;;;;;;;0.50;0.50;;;;;;;28.63;50.63;100613.00;5028062;28;20524;-70
2023/08/19 08:24:51;;;;;;;0.40;0.40;;;;;;;29.11;48.91;100606.84;5030515;28;20075;-69
2023/08/19 08:27:18;;;;;;;0.50;0.50;;;;;;;28.97;49.43;100601.88;5026658;28;20040;-71
2023/08/19 08:29:44;;;;;;;0.50;0.50;;;;;;;29.56;47.60;100609.81;5014035;28;20348;-69
2023/08/19 08:32:10;;;;;;;0.60;0.60;;;;;;;30.21;45.87;100603.97;5019606;28;20556;-70
2023/08/19 08:34:38;;;;;;;0.50;0.50;;;;;;;30.75;44.91;100607.19;5030516;28;20042;-70
2023/08/19 08:37:05;;;;;;;0.50;0.50;;;;;;;31.13;44.48;100604.94;5028070;28;20139;-71
2023/08/19 08:39:31;;;;;;;0.40;0.40;;;;;;;30.70;44.71;100611.19;5056784;28;20037;-71
2023/08/19 08:41:59;;;;;;;0.40;0.40;;;;;;;29.91;45.36;100599.28;5030730;28;20063;-71
2023/08/19 08:44:26;;;;;;;0.40;0.40;;;;;;;28.97;47.69;100599.84;5028174;28;20033;-73
2023/08/19 08:46:53;;;;;;;;;;;;;;;28.56;49.22;100597.66;5029626;28;20136;-72
2023/08/19 08:49:19;;;;;;;0.40;0.40;;;;;;;28.33;48.73;100596.88;5027333;28;20070;-72
2023/08/19 08:51:47;;;;;;;0.50;0.40;;;;;;;28.23;48.93;100596.38;5026137;28;20072;-70
2023/08/19 08:54:15;;;;;;;0.60;0.60;;;;;;;28.31;48.54;100595.28;5030577;28;20044;-71
2023/08/19 08:56:42;;;;;;;0.50;0.50;;;;;;;28.93;46.45;100587.75;5023449;28;20049;-71
2023/08/19 08:59:08;;;;;;;0.60;0.60;;;;;;;29.75;44.76;100582.66;5034637;28;20045;-71
2023/08/19 09:01:36;;;;;;;0.60;0.60;;;;;;;31.27;41.66;100587.28;5033848;28;20049;-71
2023/08/19 09:04:05;;;;;;;0.60;0.60;;;;;;;32.30;38.79;100582.53;5030193;28;20053;-71
2023/08/19 09:06:32;;;;;;;0.60;0.60;;;;;;;32.62;37.93;100584.53;5015490;28;20484;-71
2023/08/19 09:09:02;;;;;;;0.70;0.70;;;;;;;33.00;37.10;100578.34;5028148;28;20045;-71
2023/08/19 09:11:30;;;;;;;0.50;0.50;;;;;;;33.34;36.41;100575.75;5030331;28;20491;-71
2023/08/19 09:14:05;;;;;;;0.60;0.60;;;;;;;33.32;36.33;100566.84;5008616;28;20041;-72
2023/08/19 09:16:32;;;;;;;0.40;0.40;;;;;;;32.98;36.50;100578.75;5026642;28;20041;-71
2023/08/19 09:18:59;;;;;;;0.60;0.60;;;;;;;32.08;37.55;100566.41;5028517;28;20439;-70
2023/08/19 09:21:26;;;;;;;0.70;0.70;;;;;;;32.37;37.04;100574.06;5028829;28;20042;-71
2023/08/19 09:23:52;;;;;;;;;;;;;;;32.90;36.12;100568.69;5030796;28;20045;-71
2023/08/19 09:26:20;;;;;;;0.70;0.70;;;;;;;33.04;35.48;100562.97;5030598;28;19931;-71
2023/08/19 09:28:46;;;;;;;0.70;0.70;;;;;;;33.52;34.95;100578.47;5028596;28;20064;-71
2023/08/19 09:31:20;;;;;;;0.75;0.75;;;;;;;34.11;34.07;100570.38;5033832;28;20077;-72
2023/08/19 09:33:47;;;;;;;0.70;0.70;;;;;;;34.50;32.70;100569.16;5034290;28;20052;-70
2023/08/19 09:36:16;;;;;;;0.80;0.80;;;;;;;34.65;32.25;100566.16;5033319;28;20069;-70
2023/08/19 09:38:51;;;;;;;0.80;0.80;;;;;;;34.84;31.51;100567.56;5028309;28;20055;-70
2023/08/19 09:41:18;;;;;;;0.80;0.80;;;;;;;35.26;31.04;100567.44;5029721;28;20057;-71
2023/08/19 09:43:48;;;;;;;0.60;0.60;;;;;;;35.26;30.19;100569.47;5030077;28;20048;-69
2023/08/19 09:46:15;;;;;;;0.60;0.60;;;;;;;34.29;31.70;100564.50;5017797;28;20060;-69
2023/08/19 09:48:53;;;;;;;0.88;0.82;;;;;;;33.80;32.69;100562.50;5033507;28;20045;-70
2023/08/19 09:51:23;;;;;;;0.80;0.80;;;;;;;34.12;32.13;100562.66;5016207;28;20063;-69
2023/08/19 09:53:50;;;;;;;0.80;0.80;;;;;;;35.18;31.06;100557.41;5017874;28;20515;-70
2023/08/19 09:56:22;;;;;;;0.80;0.80;;;;;;;36.02;29.77;100560.56;5040626;28;20084;-71
2023/08/19 09:58:54;;;;;;;0.90;0.90;;;;;;;36.53;28.92;100554.00;5048097;28;20033;-72
2023/08/19 10:01:22;;;;;;;0.80;0.80;;;;;;;36.74;28.54;100557.66;5058965;28;20053;-72
2023/08/19 10:03:49;;;;;;;0.80;0.80;;;;;;;37.13;28.02;100563.75;5029976;28;20037;-72
2023/08/19 10:06:25;;;;;;;0.70;0.70;;;;;;;37.24;27.65;100552.13;5019561;28;20524;-72
2023/08/19 10:08:58;;;;;;;0.50;0.50;;;;;;;36.23;28.75;100558.63;5031729;28;20067;-71
2023/08/19 10:11:27;;;;;;;0.50;0.50;;;;;;;34.71;30.69;100566.50;5029898;28;20456;-70
2023/08/19 10:13:58;;;;;;;0.50;0.50;;;;;;;33.65;32.46;100563.81;5030042;28;20042;-69
2023/08/19 10:16:25;;;;;;;0.50;0.50;;;;;;;32.97;33.33;100567.84;5029895;28;20056;-70
2023/08/19 10:18:52;;;;;;;0.60;0.60;;;;;;;32.46;33.82;100565.97;5035169;28;20697;-70
2023/08/19 10:21:23;;;;;;;0.50;0.50;;;;;;;32.93;33.67;100565.81;5035411;28;20586;-70
2023/08/19 10:23:50;;;;;;;0.70;0.70;;;;;;;32.92;33.62;100561.38;5034501;28;20585;-69
2023/08/19 10:26:17;;;;;;;0.80;0.80;;;;;;;34.38;31.15;100560.38;5036088;28;20052;-71
2023/08/19 10:29:03;;;;;;;0.80;0.80;;;;;;;35.87;29.17;100553.53;5035180;28;20042;-72
2023/08/19 10:31:30;;;;;;;0.77;0.77;;;;;;;36.81;27.67;100551.78;5034455;28;20575;-72
2023/08/19 10:33:56;;;;;;;;;;;;;;;37.86;26.41;100542.91;5035977;28;20091;-72
2023/08/19 10:36:29;;;;;;;0.80;0.80;;;;;;;38.49;25.67;100548.63;5037187;28;20375;-71
2023/08/19 10:38:59;;;;;;;0.90;0.90;;;;;;;38.66;25.14;100544.44;5046333;28;20582;-71
2023/08/19 10:41:28;;;;;;;0.90;0.90;;;;;;;39.08;24.83;100542.81;5047200;28;20106;-73
2023/08/19 10:43:59;;;;;;;0.95;0.95;;;;;;;39.29;24.23;100536.41;5024445;28;20148;-72
2023/08/19 10:46:36;;;;;;;1.00;1.00;;;;;;;38.51;25.21;100524.06;5032851;28;20075;-71
2023/08/19 10:49:02;;;;;;;;;;;;;;;37.45;27.16;100536.56;5032616;28;20041;-73
2023/08/19 10:52:02;;;;;;;0.50;0.50;;;;;;;36.15;28.59;100538.03;5037666;28;19953;-71
2023/08/19 10:54:31;;;;;;;0.80;0.80;;;;;;;36.71;28.04;100538.59;5033279;28;20050;-70
2023/08/19 10:57:09;;;;;;;1.10;1.10;;;;;;;37.66;26.53;100523.84;5029452;28;20052;-71
2023/08/19 10:59:37;;;;;;;0.60;0.60;;;;;;;37.37;26.72;100524.53;5027364;28;20034;-72
2023/08/19 11:02:06;;;;;;;0.60;0.60;;;;;;;35.97;28.35;100531.81;5027072;28;20052;-71
2023/08/19 11:04:32;;;;;;;0.50;0.50;;;;;;;34.74;29.99;100520.25;5005862;28;20638;-71
2023/08/19 11:07:04;;;;;;;0.50;0.50;;;;;;;33.64;31.29;100525.38;4805110;28;10001054;-72
2023/08/19 11:09:39;;;;;;;1.10;1.10;;;;;;;33.18;31.97;100518.78;4678033;28;10000429;-73
2023/08/19 11:12:06;;;;;;;0.60;0.60;;;;;;;33.45;31.77;100507.69;5009723;28;20527;-71
2023/08/19 11:14:32;;;;;;;0.73;0.73;;;;;;;33.79;31.30;100514.69;5029446;28;20135;-72
2023/08/19 11:16:59;;;;;;;1.20;1.20;;;;;;;34.82;29.90;100512.44;4994583;28;20889;-72
2023/08/19 11:19:27;;;;;;;1.17;1.17;;;;;;;36.35;27.44;100500.25;5026311;28;20480;-72
2023/08/19 11:21:53;;;;;;;1.15;1.15;;;;;;;37.60;25.52;100508.50;5026651;28;20522;-71
2023/08/19 11:24:19;;;;;;;1.40;1.30;;;;;;;37.90;25.47;100503.66;5031340;28;20069;-72
2023/08/19 11:26:47;;;;;;;1.30;1.20;;;;;;;38.35;25.05;100493.50;5029927;28;20024;-71
2023/08/19 11:29:14;;;;;;;1.30;1.20;;;;;;;39.40;23.54;100495.25;5010422;28;20053;-72